Time;durP1;ratioP1;P1;durP2;ratioP2;P2;SDS_P1;SDS_P2;PMS_P1;PMS_P2;Temp;Humidity;BMP_temperature;BMP_pressure;BME280_temperature;BME280_humidity;BME280_pressure;Samples;Min_cycle;Max_cycle;Signal;HPM_P1;HPM_P2
2023/09/03 00:01:34;;;;;;;5.17;4.13;;;;;;;24.98;67.31;99913.63;4994935;28;20222;-62
2023/09/03 00:04:02;;;;;;;4.03;3.73;;;;;;;25.07;67.15;99900.25;4994710;28;20292;-63
2023/09/03 00:06:28;;;;;;;4.70;4.33;;;;;;;25.18;66.95;99911.91;4997810;28;20286;-62
2023/09/03 00:08:55;;;;;;;4.20;3.97;;;;;;;25.26;66.29;99903.13;5033797;28;20251;-62
2023/09/03 00:11:22;;;;;;;5.63;5.13;;;;;;;25.32;66.35;99907.50;5033865;28;20292;-62
2023/09/03 00:13:48;;;;;;;4.50;4.10;;;;;;;25.36;66.63;99908.56;5033732;28;20198;-62
2023/09/03 00:16:15;;;;;;;4.53;4.27;;;;;;;25.41;66.50;99905.78;5001292;28;20199;-63
2023/09/03 00:18:42;;;;;;;4.27;4.07;;;;;;;25.44;66.00;99905.25;5002290;28;20751;-63
2023/09/03 00:21:09;;;;;;;5.27;4.50;;;;;;;25.42;66.71;99919.13;5013909;28;20747;-62
2023/09/03 00:23:36;;;;;;;5.43;4.97;;;;;;;25.44;65.90;99916.13;5013809;28;20204;-62
2023/09/03 00:26:03;;;;;;;5.70;5.20;;;;;;;25.37;66.30;99926.50;5009967;28;20740;-62
2023/09/03 00:28:30;;;;;;;4.77;4.40;;;;;;;25.35;65.72;99917.81;4995541;28;20250;-62
2023/09/03 00:31:04;;;;;;;4.70;4.33;;;;;;;25.39;65.25;99919.66;4994410;28;20194;-62
2023/09/03 00:33:31;;;;;;;4.57;4.17;;;;;;;25.39;65.50;99913.44;4993907;28;20222;-62
2023/09/03 00:35:57;;;;;;;4.40;4.20;;;;;;;25.49;65.31;99908.75;5005461;28;20198;-62
2023/09/03 00:38:25;;;;;;;4.53;4.23;;;;;;;25.56;64.85;99908.41;5013612;28;20581;-62
2023/09/03 00:40:52;;;;;;;4.87;4.47;;;;;;;25.57;65.17;99910.03;5013614;28;20202;-62
2023/09/03 00:43:19;;;;;;;5.23;4.80;;;;;;;25.58;64.40;99911.66;5013485;28;20194;-62
2023/09/03 00:45:47;;;;;;;5.40;4.30;;;;;;;25.45;64.47;99906.84;5010199;28;20268;-62
2023/09/03 00:48:17;;;;;;;4.80;4.33;;;;;;;25.37;64.63;99915.59;5012984;28;20256;-62
2023/09/03 00:50:46;;;;;;;5.33;4.93;;;;;;;25.40;63.96;99915.88;5013159;28;20208;-62
2023/09/03 00:53:14;;;;;;;5.33;4.93;;;;;;;25.37;62.99;99912.88;5013612;28;20221;-62
2023/09/03 00:55:43;;;;;;;4.43;4.20;;;;;;;25.35;63.08;99909.66;5011577;28;20584;-62
2023/09/03 00:58:10;;;;;;;4.90;4.50;;;;;;;25.40;63.00;99907.72;5013088;28;20677;-62
2023/09/03 01:00:37;;;;;;;5.43;5.03;;;;;;;25.41;61.92;99911.22;5013130;28;20205;-62
2023/09/03 01:03:04;;;;;;;5.80;4.90;;;;;;;25.18;62.88;99901.03;5011230;28;20187;-62
2023/09/03 01:05:31;;;;;;;4.43;4.23;;;;;;;25.07;62.33;99899.47;5012993;28;20656;-62
2023/09/03 01:08:00;;;;;;;5.33;4.83;;;;;;;24.84;62.36;99890.06;5024961;28;20201;-62
2023/09/03 01:10:37;;;;;;;5.50;5.20;;;;;;;24.62;62.68;99881.44;5033160;28;20189;-62
2023/09/03 01:13:12;;;;;;;5.73;5.33;;;;;;;24.45;64.00;99886.38;5028046;28;20242;-64
2023/09/03 01:15:44;;;;;;;4.87;4.37;;;;;;;24.29;63.71;99893.75;4993592;28;20198;-62
2023/09/03 01:18:17;;;;;;;5.57;5.10;;;;;;;24.16;65.65;99893.50;4992977;28;20193;-63
2023/09/03 01:20:51;;;;;;;4.57;4.27;;;;;;;24.08;64.63;99891.34;4993277;28;20217;-62
2023/09/03 01:23:34;;;;;;;4.83;4.43;;;;;;;24.04;65.51;99901.94;4993838;28;20547;-63
2023/09/03 01:26:12;;;;;;;5.03;4.63;;;;;;;23.92;65.76;99893.28;4993230;28;20304;-62
2023/09/03 01:28:41;;;;;;;7.33;4.80;;;;;;;23.72;67.18;99882.41;4993354;28;20272;-62
2023/09/03 01:31:11;;;;;;;4.57;4.27;;;;;;;23.67;67.53;99893.25;4993323;28;20208;-63
2023/09/03 01:33:39;;;;;;;4.90;4.60;;;;;;;23.72;67.48;99882.41;4993946;28;20443;-62
2023/09/03 01:36:09;;;;;;;5.00;4.70;;;;;;;23.73;68.36;99881.31;4992952;28;20206;-62
2023/09/03 01:38:36;;;;;;;5.47;5.03;;;;;;;23.82;68.31;99879.69;4992882;28;20202;-63
2023/09/03 01:41:03;;;;;;;4.87;4.47;;;;;;;23.78;68.49;99886.75;4993367;28;20193;-63
2023/09/03 01:43:30;;;;;;;5.37;5.07;;;;;;;23.70;69.43;99873.72;5009441;28;20197;-62
2023/09/03 01:46:03;;;;;;;7.03;5.03;;;;;;;23.61;70.13;99879.97;5012379;28;20282;-63
2023/09/03 01:48:43;;;;;;;5.70;5.20;;;;;;;23.73;69.85;99872.38;5012293;28;20186;-63
2023/09/03 01:51:16;;;;;;;5.20;4.70;;;;;;;23.65;70.37;99860.13;5012687;28;20239;-63
2023/09/03 01:53:57;;;;;;;4.73;4.40;;;;;;;23.86;70.18;99869.91;5010714;28;20197;-63
2023/09/03 01:56:26;;;;;;;4.60;4.40;;;;;;;24.11;68.80;99877.22;5012312;28;20755;-63
2023/09/03 01:58:57;;;;;;;4.60;4.30;;;;;;;24.32;68.32;99874.19;5011723;28;20205;-63
2023/09/03 02:01:30;;;;;;;5.97;5.17;;;;;;;24.53;66.99;99883.91;5010740;28;20212;-64
2023/09/03 02:03:57;;;;;;;5.53;5.07;;;;;;;24.62;67.02;99871.41;4992400;28;20187;-62
2023/09/03 02:06:24;;;;;;;5.63;5.30;;;;;;;24.73;66.87;99877.59;4992437;28;20625;-63
2023/09/03 02:08:50;;;;;;;5.40;4.90;;;;;;;24.85;66.73;99883.53;5029997;28;20673;-62
2023/09/03 02:11:17;;;;;;;5.37;4.90;;;;;;;24.96;66.50;99883.19;5030820;28;20193;-63
2023/09/03 02:13:44;;;;;;;5.67;5.20;;;;;;;24.96;66.50;99882.38;5009554;28;20197;-62
2023/09/03 02:16:10;;;;;;;7.00;5.87;;;;;;;24.80;67.26;99881.63;5011802;28;20741;-63
2023/09/03 02:18:38;;;;;;;5.50;4.97;;;;;;;24.84;66.89;99885.41;5011834;28;20218;-62
2023/09/03 02:21:05;;;;;;;6.00;5.40;;;;;;;24.92;66.47;99882.13;5011782;28;20658;-63
2023/09/03 02:23:32;;;;;;;6.30;5.90;;;;;;;24.76;66.91;99874.34;4998689;28;20198;-62
2023/09/03 02:26:01;;;;;;;6.00;5.63;;;;;;;24.35;67.88;99870.91;5009774;28;20225;-62
2023/09/03 02:28:28;;;;;;;8.13;6.27;;;;;;;24.03;68.70;99875.91;5011819;28;20284;-62
2023/09/03 02:30:55;;;;;;;6.37;5.73;;;;;;;23.77;68.97;99878.88;5011790;28;20339;-62
2023/09/03 02:33:22;;;;;;;5.83;5.50;;;;;;;23.55;69.29;99881.84;5009486;28;20228;-62
2023/09/03 02:35:50;;;;;;;8.53;5.50;;;;;;;23.46;70.00;99880.78;5011506;28;20214;-62
2023/09/03 02:38:17;;;;;;;6.17;5.57;;;;;;;23.43;69.64;99875.06;5011954;28;20196;-62
2023/09/03 02:40:44;;;;;;;5.87;5.47;;;;;;;23.23;70.61;99873.13;5011669;28;20200;-62
2023/09/03 02:43:11;;;;;;;6.67;5.77;;;;;;;23.34;70.84;99880.22;4998749;28;20196;-63
2023/09/03 02:45:38;;;;;;;6.60;6.00;;;;;;;23.39;70.64;99880.22;4992122;28;20227;-62
2023/09/03 02:48:07;;;;;;;5.90;5.40;;;;;;;23.39;71.87;99882.94;4991833;28;20684;-62
2023/09/03 02:50:35;;;;;;;6.93;5.70;;;;;;;23.48;71.27;99877.78;4992831;28;20191;-62
2023/09/03 02:53:04;;;;;;;7.60;6.03;;;;;;;23.59;70.26;99882.94;4991648;28;20197;-63
2023/09/03 02:55:31;;;;;;;5.63;5.00;;;;;;;23.58;69.99;99884.03;4991671;28;20198;-62
2023/09/03 02:57:57;;;;;;;6.00;5.43;;;;;;;23.59;69.47;99885.66;4991704;28;20205;-63
2023/09/03 03:00:24;;;;;;;5.90;5.40;;;;;;;23.62;70.31;99887.00;4992239;28;20677;-63
2023/09/03 03:02:52;;;;;;;6.23;5.73;;;;;;;23.71;69.42;99886.19;4992096;28;20200;-63
2023/09/03 03:05:18;;;;;;;6.00;5.50;;;;;;;23.72;68.98;99885.09;4991960;28;20232;-63
2023/09/03 03:07:46;;;;;;;6.57;5.73;;;;;;;23.64;68.41;99882.13;5011654;28;20199;-63
2023/09/03 03:10:14;;;;;;;8.57;5.77;;;;;;;23.64;68.60;99891.06;5003287;28;20197;-64
2023/09/03 03:12:44;;;;;;;6.73;5.20;;;;;;;23.70;68.59;99884.59;4995602;28;20193;-62
2023/09/03 03:15:11;;;;;;;7.47;5.63;;;;;;;23.81;67.77;99888.91;4995491;28;20280;-63
2023/09/03 03:17:37;;;;;;;6.67;6.07;;;;;;;23.88;67.51;99889.44;5004614;28;20274;-62
2023/09/03 03:20:05;;;;;;;6.13;5.53;;;;;;;23.92;67.69;99882.41;5015319;28;20262;-62
2023/09/03 03:22:31;;;;;;;5.93;5.40;;;;;;;24.02;67.72;99889.75;5014990;28;20626;-62
2023/09/03 03:24:58;;;;;;;5.30;4.93;;;;;;;24.05;67.30;99881.06;5006236;28;20702;-62
2023/09/03 03:27:26;;;;;;;5.67;5.20;;;;;;;24.08;67.26;99878.59;4995246;28;20210;-62
2023/09/03 03:29:53;;;;;;;5.33;4.93;;;;;;;24.14;66.53;99885.63;4995660;28;20277;-62
2023/09/03 03:32:20;;;;;;;5.70;5.20;;;;;;;24.23;66.29;99884.00;4995330;28;20292;-62
2023/09/03 03:34:46;;;;;;;6.37;5.87;;;;;;;24.39;65.92;99884.75;4999576;28;20300;-62
2023/09/03 03:37:13;;;;;;;8.43;5.73;;;;;;;24.53;64.85;99894.78;5013115;28;20198;-62
2023/09/03 03:39:40;;;;;;;5.00;4.60;;;;;;;24.62;64.22;99897.75;5014623;28;20205;-63
2023/09/03 03:42:07;;;;;;;6.60;5.93;;;;;;;24.68;63.58;99902.91;5008731;28;20190;-62
2023/09/03 03:44:35;;;;;;;5.67;5.27;;;;;;;24.72;62.53;99901.25;5014676;28;20204;-62
2023/09/03 03:47:01;;;;;;;4.90;4.50;;;;;;;24.80;61.30;99906.09;5014213;28;20653;-63
2023/09/03 03:49:28;;;;;;;5.30;4.90;;;;;;;24.81;60.11;99907.75;5014237;28;20193;-62
2023/09/03 03:51:55;;;;;;;6.33;5.73;;;;;;;24.86;60.17;99907.72;5012776;28;20252;-62
2023/09/03 03:54:21;;;;;;;5.60;5.10;;;;;;;24.92;60.40;99924.81;5014713;28;20255;-62
2023/09/03 03:56:48;;;;;;;5.90;5.50;;;;;;;25.02;59.93;99918.53;5014369;28;20201;-62
2023/09/03 03:59:15;;;;;;;5.47;5.10;;;;;;;25.03;59.33;99916.31;5014571;28;20198;-62
2023/09/03 04:01:43;;;;;;;5.77;5.40;;;;;;;24.96;57.95;99915.00;5012134;28;20276;-62
2023/09/03 04:04:09;;;;;;;6.77;5.50;;;;;;;24.69;58.63;99918.09;5014494;28;20302;-63
2023/09/03 04:06:36;;;;;;;5.57;5.10;;;;;;;24.51;59.25;99915.94;5014983;28;20281;-62
2023/09/03 04:09:03;;;;;;;6.87;6.30;;;;;;;24.30;60.00;99908.16;5034322;28;20201;-63
2023/09/03 04:11:29;;;;;;;5.47;5.17;;;;;;;24.04;61.17;99907.38;5022179;28;20296;-62
2023/09/03 04:13:56;;;;;;;6.20;5.70;;;;;;;23.81;64.27;99893.53;5014287;28;20259;-62
2023/09/03 04:16:23;;;;;;;6.30;5.70;;;;;;;23.77;64.19;99906.00;5014065;28;20205;-62
2023/09/03 04:18:51;;;;;;;7.20;6.50;;;;;;;23.63;64.28;99900.31;5013994;28;20741;-63
2023/09/03 04:21:18;;;;;;;6.93;6.23;;;;;;;23.59;65.31;99901.94;5011215;28;20197;-62
2023/09/03 04:23:44;;;;;;;8.43;6.83;;;;;;;23.73;65.01;99903.00;5014169;28;20197;-62
2023/09/03 04:26:11;;;;;;;6.90;6.43;;;;;;;23.81;64.90;99902.47;5013915;28;20222;-62
2023/09/03 04:28:38;;;;;;;8.00;5.83;;;;;;;24.10;63.88;99908.97;5014277;28;20282;-62
2023/09/03 04:31:08;;;;;;;10.83;5.87;;;;;;;24.50;63.27;99902.66;5009507;28;20672;-62
2023/09/03 04:33:35;;;;;;;6.80;6.20;;;;;;;24.91;61.72;99896.81;4993906;28;20269;-63
2023/09/03 04:36:04;;;;;;;6.60;6.00;;;;;;;25.33;59.51;99901.78;4994253;28;20261;-63
2023/09/03 04:38:31;;;;;;;6.73;6.23;;;;;;;25.65;58.59;99898.53;4994099;28;20194;-62
2023/09/03 04:41:03;;;;;;;5.93;5.43;;;;;;;26.03;56.73;99901.22;4994862;28;20191;-63
2023/09/03 04:43:30;;;;;;;6.93;6.20;;;;;;;26.34;55.18;99899.03;4994032;28;20190;-63
2023/09/03 04:45:57;;;;;;;5.97;5.60;;;;;;;26.46;55.32;99888.53;4993543;28;20261;-64
2023/09/03 04:48:23;;;;;;;5.90;5.07;;;;;;;26.67;53.36;99882.59;4994131;28;20280;-64
2023/09/03 04:50:50;;;;;;;5.70;5.30;;;;;;;26.66;53.09;99888.34;4994486;28;20356;-63
2023/09/03 04:53:18;;;;;;;5.77;5.37;;;;;;;26.70;52.36;99889.38;4993454;28;20191;-64
2023/09/03 04:55:45;;;;;;;6.23;5.73;;;;;;;26.87;51.89;99887.75;4993750;28;20202;-64
2023/09/03 04:58:11;;;;;;;6.10;5.57;;;;;;;27.10;50.87;99886.09;4993938;28;20244;-64
2023/09/03 05:00:38;;;;;;;5.97;5.30;;;;;;;27.22;51.95;99886.50;5001864;28;20191;-64
2023/09/03 05:03:05;;;;;;;5.90;5.50;;;;;;;27.53;50.13;99884.94;4993870;28;20277;-64
2023/09/03 05:05:32;;;;;;;5.57;5.17;;;;;;;27.95;48.06;99884.78;4993481;28;20277;-64
2023/09/03 05:07:59;;;;;;;5.77;5.37;;;;;;;28.20;47.86;99884.34;5016957;28;20190;-64
2023/09/03 05:10:27;;;;;;;6.07;5.43;;;;;;;28.60;47.27;99884.41;4999941;28;20557;-64
2023/09/03 05:12:53;;;;;;;5.80;5.20;;;;;;;29.06;45.35;99889.72;4993268;28;20666;-65
2023/09/03 05:15:20;;;;;;;5.23;4.80;;;;;;;29.37;44.18;99882.47;4993211;28;20206;-65
2023/09/03 05:17:47;;;;;;;5.97;5.50;;;;;;;29.74;42.28;99882.13;4993438;28;20269;-64
2023/09/03 05:20:13;;;;;;;6.00;5.60;;;;;;;29.73;41.59;99882.44;4994440;28;20194;-64
2023/09/03 05:22:40;;;;;;;5.83;5.20;;;;;;;29.71;41.91;99880.00;4993469;28;20273;-64
2023/09/03 05:25:08;;;;;;;5.40;5.00;;;;;;;29.81;41.95;99879.75;4993112;28;20257;-64
2023/09/03 05:27:36;;;;;;;6.70;5.17;;;;;;;29.96;41.62;99879.34;4992961;28;20194;-64
2023/09/03 05:30:03;;;;;;;11.00;6.23;;;;;;;30.00;41.91;99885.81;4994207;28;20195;-64
2023/09/03 05:32:30;;;;;;;6.03;5.43;;;;;;;30.25;40.88;99893.41;4992505;28;20318;-64
2023/09/03 05:34:56;;;;;;;7.40;5.53;;;;;;;30.10;40.72;99891.06;4993260;28;20191;-64
2023/09/03 05:37:23;;;;;;;6.77;5.77;;;;;;;30.17;41.59;99880.47;4993035;28;20198;-64
2023/09/03 05:39:51;;;;;;;5.93;5.13;;;;;;;30.45;40.57;99881.88;4993563;28;20277;-65
2023/09/03 05:42:18;;;;;;;5.93;5.40;;;;;;;30.49;40.68;99880.13;4992784;28;20256;-64
2023/09/03 05:44:47;;;;;;;6.27;5.23;;;;;;;30.74;38.97;99879.41;4992556;28;20659;-65
2023/09/03 05:47:18;;;;;;;5.73;5.37;;;;;;;30.80;39.48;99878.16;4992334;28;20218;-65
2023/09/03 05:49:44;;;;;;;5.83;5.33;;;;;;;30.99;39.00;99875.91;4994300;28;20265;-65
2023/09/03 05:52:11;;;;;;;5.93;5.53;;;;;;;31.04;38.78;99875.78;4999663;28;20189;-64
2023/09/03 05:54:38;;;;;;;6.13;5.60;;;;;;;31.01;38.60;99873.69;5022737;28;20194;-64
2023/09/03 05:57:05;;;;;;;5.37;4.97;;;;;;;31.18;38.61;99872.88;5016427;28;20678;-64
2023/09/03 05:59:32;;;;;;;5.60;5.07;;;;;;;31.40;37.86;99873.56;5022582;28;20189;-64
2023/09/03 06:02:00;;;;;;;5.77;5.10;;;;;;;31.78;37.40;99871.78;5021432;28;20625;-64
2023/09/03 06:04:26;;;;;;;6.00;5.40;;;;;;;32.02;36.54;99880.31;5022059;28;20194;-63
2023/09/03 06:06:53;;;;;;;6.60;5.30;;;;;;;31.97;35.97;99880.47;5017822;28;20223;-63
2023/09/03 06:09:20;;;;;;;5.80;5.50;;;;;;;32.05;36.30;99882.38;5017573;28;20251;-63
2023/09/03 06:11:47;;;;;;;5.47;5.07;;;;;;;32.05;36.29;99878.84;5019176;28;20190;-63
2023/09/03 06:14:14;;;;;;;6.23;5.63;;;;;;;32.12;35.99;99888.19;5012011;28;20277;-63
2023/09/03 06:16:41;;;;;;;5.33;5.00;;;;;;;32.32;35.97;99882.00;5010978;28;20201;-63
2023/09/03 06:19:09;;;;;;;5.27;4.77;;;;;;;32.19;36.57;99876.69;5011533;28;20297;-63
2023/09/03 06:21:35;;;;;;;5.23;4.93;;;;;;;32.41;35.94;99884.72;5011599;28;20201;-63
2023/09/03 06:24:02;;;;;;;5.70;4.67;;;;;;;32.36;35.71;99877.47;5011909;28;20190;-63
2023/09/03 06:26:29;;;;;;;5.60;5.20;;;;;;;32.07;36.48;99880.13;5005465;28;20218;-64
2023/09/03 06:28:55;;;;;;;6.10;5.70;;;;;;;32.16;36.97;99889.16;4991825;28;20260;-63
2023/09/03 06:31:22;;;;;;;7.63;5.53;;;;;;;32.55;36.03;99886.09;4992367;28;20194;-63
2023/09/03 06:33:49;;;;;;;6.30;5.77;;;;;;;32.58;35.96;99882.69;4992167;28;20297;-63
2023/09/03 06:36:17;;;;;;;6.17;5.53;;;;;;;32.86;35.45;99892.13;4992727;28;20197;-62
2023/09/03 06:38:44;;;;;;;5.60;5.20;;;;;;;33.05;35.05;99892.50;4993453;28;20740;-63
2023/09/03 06:41:10;;;;;;;5.83;5.40;;;;;;;32.94;35.42;99888.50;4991714;28;20680;-63
2023/09/03 06:43:37;;;;;;;5.33;4.87;;;;;;;33.13;34.81;99894.38;4993012;28;20285;-63
2023/09/03 06:46:04;;;;;;;5.80;5.50;;;;;;;33.42;34.99;99888.03;4996898;28;20218;-64
2023/09/03 06:48:30;;;;;;;6.03;5.40;;;;;;;33.64;34.27;99882.13;4995458;28;20198;-63
2023/09/03 06:50:57;;;;;;;5.32;4.90;;;;;;;33.76;34.10;99887.69;4995849;28;20200;-62
2023/09/03 06:53:25;;;;;;;8.25;5.32;;;;;;;33.75;34.40;99885.28;5007144;28;20189;-62
2023/09/03 06:55:52;;;;;;;6.50;5.07;;;;;;;34.08;33.83;99888.88;5017653;28;20208;-62
2023/09/03 06:58:19;;;;;;;6.30;5.00;;;;;;;34.32;33.33;99889.75;5014616;28;20257;-63
2023/09/03 07:00:46;;;;;;;5.13;4.78;;;;;;;34.41;33.43;99887.69;5015246;28;20263;-63
2023/09/03 07:03:13;;;;;;;5.25;4.50;;;;;;;34.47;33.56;99880.81;5019198;28;20190;-62
2023/09/03 07:05:40;;;;;;;5.28;4.78;;;;;;;34.13;33.93;99880.38;5014564;28;20248;-63
2023/09/03 07:08:07;;;;;;;4.53;4.10;;;;;;;34.20;33.76;99875.09;5024651;28;20197;-65
2023/09/03 07:10:35;;;;;;;5.38;4.97;;;;;;;34.40;33.31;99875.03;5033376;28;20189;-63
2023/09/03 07:13:01;;;;;;;4.93;4.30;;;;;;;34.42;33.17;99871.94;5034392;28;20193;-63
2023/09/03 07:15:28;;;;;;;5.32;4.65;;;;;;;34.37;32.85;99881.25;5013423;28;20195;-63
2023/09/03 07:17:55;;;;;;;4.88;4.57;;;;;;;34.16;33.48;99869.47;4995695;28;20261;-63
2023/09/03 07:20:21;;;;;;;4.40;4.05;;;;;;;33.89;33.68;99874.81;4993813;28;20198;-63
2023/09/03 07:22:48;;;;;;;4.75;4.07;;;;;;;33.71;34.29;99876.09;4995229;28;20303;-63
2023/09/03 07:25:15;;;;;;;4.18;3.97;;;;;;;33.89;34.34;99878.38;4996016;28;20667;-63
2023/09/03 07:27:43;;;;;;;3.85;3.65;;;;;;;33.90;34.11;99871.72;4994397;28;20277;-63
2023/09/03 07:30:11;;;;;;;4.85;4.45;;;;;;;34.07;33.73;99876.22;4995027;28;20658;-63
2023/09/03 07:32:38;;;;;;;9.15;4.53;;;;;;;34.24;33.40;99876.00;4995257;28;20237;-63
2023/09/03 07:35:06;;;;;;;4.90;4.32;;;;;;;34.54;32.90;99880.22;4997326;28;20558;-63
2023/09/03 07:37:33;;;;;;;4.57;4.38;;;;;;;34.37;33.22;99874.94;5004687;28;20194;-62
2023/09/03 07:40:00;;;;;;;4.80;4.40;;;;;;;34.48;32.83;99870.56;4994894;28;20194;-63
2023/09/03 07:42:27;;;;;;;5.07;4.32;;;;;;;34.43;33.04;99881.81;4994697;28;20663;-62
2023/09/03 07:44:55;;;;;;;4.30;4.00;;;;;;;34.67;32.71;99876.31;4997384;28;20293;-63
2023/09/03 07:47:22;;;;;;;5.28;3.67;;;;;;;35.01;32.40;99873.06;5014511;28;20296;-63
2023/09/03 07:49:49;;;;;;;4.05;3.75;;;;;;;35.27;31.40;99873.50;5014553;28;20198;-61
2023/09/03 07:52:16;;;;;;;4.20;4.00;;;;;;;35.40;31.89;99869.56;5014211;28;20658;-62
2023/09/03 07:54:42;;;;;;;8.88;4.15;;;;;;;35.42;31.84;99870.00;5011840;28;20206;-62
2023/09/03 07:57:10;;;;;;;4.80;4.50;;;;;;;35.41;30.99;99865.63;5013674;28;20194;-61
2023/09/03 07:59:36;;;;;;;4.10;3.85;;;;;;;35.28;31.15;99866.84;5014137;28;20223;-62
2023/09/03 08:02:05;;;;;;;4.40;4.00;;;;;;;34.99;32.30;99864.34;5013990;28;20666;-62
2023/09/03 08:04:31;;;;;;;3.85;3.53;;;;;;;35.06;31.78;99865.34;5013280;28;20194;-62
2023/09/03 08:06:58;;;;;;;4.13;3.85;;;;;;;35.27;31.08;99859.69;5017055;28;20279;-62
2023/09/03 08:09:25;;;;;;;3.85;3.58;;;;;;;35.38;30.46;99871.84;5033937;28;20197;-61
2023/09/03 08:11:52;;;;;;;7.15;4.03;;;;;;;35.36;30.81;99871.41;5033206;28;20220;-61
2023/09/03 08:14:18;;;;;;;4.50;3.70;;;;;;;35.35;29.72;99867.06;5033428;28;20285;-61
2023/09/03 08:16:45;;;;;;;3.63;3.13;;;;;;;35.45;29.95;99866.53;5012140;28;20198;-61
2023/09/03 08:19:13;;;;;;;3.67;3.38;;;;;;;35.65;30.11;99865.53;5013747;28;20263;-61
2023/09/03 08:21:40;;;;;;;3.92;3.60;;;;;;;35.77;29.59;99868.28;5013542;28;20190;-61
2023/09/03 08:24:09;;;;;;;4.07;3.42;;;;;;;35.92;30.01;99870.25;5002639;28;20222;-61
2023/09/03 08:26:36;;;;;;;3.92;3.65;;;;;;;35.93;29.66;99860.81;4993279;28;20222;-62
2023/09/03 08:29:02;;;;;;;3.55;3.35;;;;;;;35.37;29.95;99868.31;4993480;28;20260;-61
2023/09/03 08:31:29;;;;;;;3.55;3.35;;;;;;;35.34;30.80;99870.94;4999995;28;20202;-61
2023/09/03 08:33:56;;;;;;;3.72;3.42;;;;;;;35.52;30.02;99866.75;5013255;28;20230;-61
2023/09/03 08:36:24;;;;;;;3.60;3.30;;;;;;;35.75;29.90;99859.50;5013227;28;20277;-61
2023/09/03 08:38:51;;;;;;;3.83;3.58;;;;;;;35.83;29.72;99862.13;5013435;28;20252;-60
2023/09/03 08:41:19;;;;;;;3.75;3.45;;;;;;;36.00;29.79;99861.81;5011554;28;20617;-61
2023/09/03 08:43:49;;;;;;;3.95;3.53;;;;;;;36.13;29.13;99855.03;5013353;28;20198;-60
2023/09/03 08:46:19;;;;;;;3.10;2.90;;;;;;;36.21;27.75;99850.50;5013228;28;20281;-60
2023/09/03 08:48:48;;;;;;;3.10;2.88;;;;;;;36.12;27.85;99847.06;5012758;28;20626;-60
2023/09/03 08:51:15;;;;;;;3.28;2.95;;;;;;;36.12;27.18;99849.84;5008595;28;20296;-60
2023/09/03 08:53:45;;;;;;;4.00;3.70;;;;;;;36.18;27.72;99845.66;4993665;28;20266;-60
2023/09/03 08:56:12;;;;;;;3.20;2.90;;;;;;;36.36;25.44;99842.22;4993184;28;20573;-60
2023/09/03 08:58:39;;;;;;;2.80;2.60;;;;;;;36.10;23.84;99838.34;4993212;28;20269;-60
2023/09/03 09:01:08;;;;;;;2.75;2.55;;;;;;;36.10;24.80;99827.28;4994065;28;20679;-61
2023/09/03 09:03:36;;;;;;;2.83;2.67;;;;;;;36.27;25.31;99821.41;4992963;28;20261;-59
2023/09/03 09:06:03;;;;;;;2.60;2.50;;;;;;;36.49;24.70;99829.06;4992852;28;20190;-60
2023/09/03 09:08:30;;;;;;;2.53;2.42;;;;;;;36.61;23.92;99826.19;5023997;28;20278;-59
2023/09/03 09:11:02;;;;;;;3.20;2.90;;;;;;;36.55;23.76;99822.09;5030355;28;20244;-59
2023/09/03 09:13:35;;;;;;;3.15;2.83;;;;;;;36.62;24.00;99808.41;4993114;28;20241;-60
2023/09/03 09:16:02;;;;;;;2.65;2.42;;;;;;;36.44;23.10;99819.06;4993246;28;20195;-60
2023/09/03 09:18:28;;;;;;;3.13;2.92;;;;;;;36.47;23.91;99814.78;4992726;28;20642;-60
2023/09/03 09:20:58;;;;;;;3.17;2.97;;;;;;;36.65;23.70;99815.97;4992282;28;20574;-59
2023/09/03 09:23:27;;;;;;;2.75;2.45;;;;;;;36.47;23.38;99821.13;4992784;28;20277;-60
2023/09/03 09:25:55;;;;;;;3.80;2.85;;;;;;;36.53;23.20;99802.25;4992501;28;20363;-59
2023/09/03 09:28:23;;;;;;;2.50;2.40;;;;;;;35.88;22.77;99814.06;4991346;28;20219;-60
2023/09/03 09:30:54;;;;;;;3.03;2.72;;;;;;;35.64;22.80;99808.63;4992003;28;20245;-60
2023/09/03 09:33:21;;;;;;;3.15;2.88;;;;;;;35.82;23.29;99798.88;4992155;28;20226;-60
2023/09/03 09:35:48;;;;;;;2.65;2.45;;;;;;;35.98;22.54;99802.47;4992291;28;20191;-60
2023/09/03 09:38:15;;;;;;;2.58;2.45;;;;;;;35.92;22.22;99799.16;4991660;28;20277;-60
2023/09/03 09:40:42;;;;;;;2.58;2.40;;;;;;;35.24;23.55;99794.06;4991939;28;20358;-60
2023/09/03 09:43:09;;;;;;;2.65;2.42;;;;;;;35.58;23.17;99787.91;4992361;28;20559;-60
2023/09/03 09:45:47;;;;;;;2.45;2.35;;;;;;;35.76;22.84;99792.00;4992206;28;20199;-60
2023/09/03 09:48:14;;;;;;;3.00;2.78;;;;;;;35.80;22.89;99790.16;4991893;28;20673;-60
2023/09/03 09:50:42;;;;;;;2.78;2.67;;;;;;;35.48;22.07;99786.47;4992370;28;20199;-60
2023/09/03 09:53:22;;;;;;;3.00;2.80;;;;;;;35.36;22.48;99771.94;4992842;28;20249;-60
2023/09/03 09:55:57;;;;;;;2.83;2.65;;;;;;;35.13;23.33;99773.59;4992151;28;20190;-60
2023/09/03 09:58:24;;;;;;;2.90;2.80;;;;;;;35.18;23.32;99768.63;4992066;28;20273;-60
2023/09/03 10:00:53;;;;;;;2.80;2.40;;;;;;;35.50;22.94;99758.47;4991270;28;20253;-60
2023/09/03 10:03:20;;;;;;;2.42;2.33;;;;;;;35.48;22.64;99755.28;4991950;28;20194;-60
2023/09/03 10:05:50;;;;;;;3.50;3.03;;;;;;;35.73;22.81;99749.22;4991912;28;20190;-60
2023/09/03 10:08:17;;;;;;;2.45;2.35;;;;;;;35.66;23.03;99745.50;5009227;28;20269;-61
2023/09/03 10:10:44;;;;;;;3.10;3.00;;;;;;;35.75;23.22;99749.72;4991751;28;20199;-60
2023/09/03 10:13:11;;;;;;;2.55;2.45;;;;;;;34.93;23.23;99749.72;4991416;28;20191;-61
2023/09/03 10:15:42;;;;;;;2.80;2.60;;;;;;;34.85;23.16;99736.88;4991939;28;20273;-60
2023/09/03 10:18:10;;;;;;;6.13;2.80;;;;;;;35.13;23.46;99745.97;4992580;28;20201;-60
2023/09/03 10:20:38;;;;;;;2.95;2.70;;;;;;;35.29;22.61;99731.09;5002757;28;20277;-60
2023/09/03 10:23:05;;;;;;;2.70;2.60;;;;;;;35.14;23.14;99723.53;5003712;28;20288;-60
2023/09/03 10:25:34;;;;;;;2.85;2.75;;;;;;;35.21;22.94;99728.44;5011349;28;20194;-60
2023/09/03 10:28:05;;;;;;;2.90;2.78;;;;;;;34.77;23.73;99719.28;5009056;28;20301;-61
2023/09/03 10:30:37;;;;;;;5.13;3.20;;;;;;;34.62;23.80;99713.69;5011349;28;20182;-60
2023/09/03 10:33:04;;;;;;;2.47;2.30;;;;;;;34.42;23.96;99723.72;5009580;28;20218;-62
2023/09/03 10:35:34;;;;;;;3.15;2.95;;;;;;;34.60;24.24;99713.22;5011504;28;20202;-61
2023/09/03 10:38:00;;;;;;;2.72;2.53;;;;;;;34.72;24.10;99711.25;5011317;28;20201;-61
2023/09/03 10:40:29;;;;;;;3.08;2.67;;;;;;;34.92;23.50;99709.47;5011834;28;20194;-60
2023/09/03 10:43:25;;;;;;;2.80;2.60;;;;;;;35.13;23.77;99710.88;5009388;28;20203;-60
2023/09/03 10:46:05;;;;;;;3.08;2.90;;;;;;;35.34;23.45;99707.91;5011356;28;20244;-61
2023/09/03 10:48:34;;;;;;;2.40;2.30;;;;;;;35.52;23.07;99712.75;5011096;28;20221;-60
2023/09/03 10:51:02;;;;;;;2.60;2.50;;;;;;;35.62;22.91;99711.41;5011119;28;20281;-60
2023/09/03 10:53:39;;;;;;;4.50;2.42;;;;;;;35.62;22.68;99711.41;5009128;28;20198;-60
2023/09/03 10:56:10;;;;;;;8.40;7.80;;;;;;;35.59;22.65;99703.81;5010959;28;20186;-60
2023/09/03 10:58:54;;;;;;;3.83;3.63;;;;;;;35.51;22.96;99694.56;5011228;28;20194;-60
2023/09/03 11:01:22;;;;;;;2.92;2.78;;;;;;;35.33;23.98;99686.97;5011622;28;20269;-60
2023/09/03 11:03:50;;;;;;;3.28;3.00;;;;;;;35.31;23.95;99683.75;5008691;28;20678;-60
2023/09/03 11:06:22;;;;;;;3.00;2.80;;;;;;;34.34;24.43;99688.00;5011321;28;20194;-62
2023/09/03 11:09:10;;;;;;;2.88;2.55;;;;;;;34.36;24.58;99669.13;5029573;28;20224;-61
2023/09/03 11:11:38;;;;;;;3.15;2.95;;;;;;;34.57;24.25;99675.31;5030377;28;20277;-60
2023/09/03 11:14:06;;;;;;;3.38;2.70;;;;;;;34.72;24.03;99667.06;5016802;28;20194;-61
2023/09/03 11:16:34;;;;;;;3.38;2.88;;;;;;;34.76;24.33;99684.53;5008903;28;20623;-60
2023/09/03 11:19:04;;;;;;;2.70;2.58;;;;;;;34.80;24.16;99673.63;5011113;28;20260;-61
2023/09/03 11:21:32;;;;;;;4.53;4.32;;;;;;;34.53;24.44;99675.19;5011015;28;20234;-61
2023/09/03 11:24:00;;;;;;;3.15;2.65;;;;;;;34.55;24.51;99672.06;4998901;28;20210;-61
2023/09/03 11:26:27;;;;;;;4.97;2.70;;;;;;;34.66;24.73;99667.69;4991398;28;20281;-61
2023/09/03 11:28:53;;;;;;;2.83;2.72;;;;;;;34.66;24.06;99656.63;4991135;28;20698;-60
2023/09/03 11:31:20;;;;;;;3.97;3.17;;;;;;;34.78;24.45;99656.59;4993965;28;20194;-60
2023/09/03 11:33:47;;;;;;;2.40;2.30;;;;;;;34.84;24.33;99663.47;4995045;28;20702;-60
2023/09/03 11:36:14;;;;;;;2.83;2.55;;;;;;;34.83;24.22;99656.34;4994720;28;20195;-61
2023/09/03 11:38:43;;;;;;;3.10;2.90;;;;;;;34.74;24.37;99656.47;4994626;28;20682;-61